sensor_id;sensor_type;location;lat;lon;timestamp;temperature;humidity
5631;DHT22;2837;50.990;7.124;2022-08-19T05:02:37;20.30;99.90
5631;DHT22;2837;50.990;7.124;2022-08-19T05:05:04;20.30;99.90
5631;DHT22;2837;50.990;7.124;2022-08-19T05:07:31;20.30;99.90
5631;DHT22;2837;50.990;7.124;2022-08-19T05:09:57;20.30;99.90
5631;DHT22;2837;50.990;7.124;2022-08-19T05:12:23;20.30;99.90
5631;DHT22;2837;50.990;7.124;2022-08-19T05:14:49;20.30;99.90
5631;DHT22;2837;50.990;7.124;2022-08-19T05:17:15;20.30;99.90
5631;DHT22;2837;50.990;7.124;2022-08-19T05:19:40;20.30;99.90
5631;DHT22;2837;50.990;7.124;2022-08-19T05:22:24;20.30;99.90
5631;DHT22;2837;50.990;7.124;2022-08-19T05:25:07;20.30;99.90
5631;DHT22;2837;50.990;7.124;2022-08-19T05:27:33;20.30;99.90
5631;DHT22;2837;50.990;7.124;2022-08-19T05:29:59;20.30;99.90
5631;DHT22;2837;50.990;7.124;2022-08-19T05:32:25;20.30;99.90
5631;DHT22;2837;50.990;7.124;2022-08-19T05:34:51;20.40;99.90
5631;DHT22;2837;50.990;7.124;2022-08-19T05:37:16;20.30;99.90
5631;DHT22;2837;50.990;7.124;2022-08-19T05:39:42;20.40;99.90
5631;DHT22;2837;50.990;7.124;2022-08-19T05:42:10;20.40;99.90
5631;DHT22;2837;50.990;7.124;2022-08-19T05:44:40;20.40;99.90
5631;DHT22;2837;50.990;7.124;2022-08-19T05:47:08;20.40;99.90
5631;DHT22;2837;50.990;7.124;2022-08-19T05:49:35;20.40;99.90
5631;DHT22;2837;50.990;7.124;2022-08-19T05:52:04;20.30;99.90
5631;DHT22;2837;50.990;7.124;2022-08-19T05:54:30;20.40;99.90
5631;DHT22;2837;50.990;7.124;2022-08-19T05:56:56;20.40;99.90
5631;DHT22;2837;50.990;7.124;2022-08-19T05:59:22;20.40;99.90
5631;DHT22;2837;50.990;7.124;2022-08-19T06:01:52;20.40;99.90
5631;DHT22;2837;50.990;7.124;2022-08-19T06:04:21;20.40;99.90
5631;DHT22;2837;50.990;7.124;2022-08-19T06:06:49;20.40;99.90
5631;DHT22;2837;50.990;7.124;2022-08-19T06:09:15;20.40;99.90
5631;DHT22;2837;50.990;7.124;2022-08-19T06:11:55;20.40;99.90
5631;DHT22;2837;50.990;7.124;2022-08-19T06:14:28;20.50;99.90
5631;DHT22;2837;50.990;7.124;2022-08-19T06:16:54;20.50;99.90
5631;DHT22;2837;50.990;7.124;2022-08-19T06:19:22;20.50;99.90
5631;DHT22;2837;50.990;7.124;2022-08-19T06:21:50;20.50;99.90
5631;DHT22;2837;50.990;7.124;2022-08-19T06:24:19;20.50;99.90
5631;DHT22;2837;50.990;7.124;2022-08-19T06:26:47;20.60;99.90
5631;DHT22;2837;50.990;7.124;2022-08-19T06:29:14;20.60;99.90
5631;DHT22;2837;50.990;7.124;2022-08-19T06:31:43;20.60;99.90
5631;DHT22;2837;50.990;7.124;2022-08-19T06:34:09;20.60;99.90
5631;DHT22;2837;50.990;7.124;2022-08-19T06:36:37;20.70;99.90
5631;DHT22;2837;50.990;7.124;2022-08-19T06:39:07;20.70;99.90
5631;DHT22;2837;50.990;7.124;2022-08-19T06:41:38;20.70;99.90
5631;DHT22;2837;50.990;7.124;2022-08-19T06:44:04;20.80;99.90
5631;DHT22;2837;50.990;7.124;2022-08-19T06:46:30;20.80;99.90
5631;DHT22;2837;50.990;7.124;2022-08-19T06:48:56;20.80;99.90
5631;DHT22;2837;50.990;7.124;2022-08-19T06:51:23;20.80;99.90
5631;DHT22;2837;50.990;7.124;2022-08-19T06:53:52;20.80;99.90
5631;DHT22;2837;50.990;7.124;2022-08-19T06:56:21;20.80;99.90
5631;DHT22;2837;50.990;7.124;2022-08-19T06:58:47;20.80;99.90
5631;DHT22;2837;50.990;7.124;2022-08-19T07:01:16;20.80;99.90
5631;DHT22;2837;50.990;7.124;2022-08-19T07:03:41;20.80;99.90
5631;DHT22;2837;50.990;7.124;2022-08-19T07:06:10;20.90;99.90
5631;DHT22;2837;50.990;7.124;2022-08-19T07:08:37;20.90;99.90
5631;DHT22;2837;50.990;7.124;2022-08-19T07:11:07;21.00;99.90
5631;DHT22;2837;50.990;7.124;2022-08-19T07:13:37;21.00;99.90
5631;DHT22;2837;50.990;7.124;2022-08-19T07:16:07;21.10;99.90
5631;DHT22;2837;50.990;7.124;2022-08-19T07:18:34;21.10;99.90
5631;DHT22;2837;50.990;7.124;2022-08-19T07:21:09;21.10;99.90
5631;DHT22;2837;50.990;7.124;2022-08-19T07:23:36;21.20;99.90
5631;DHT22;2837;50.990;7.124;2022-08-19T07:26:10;21.20;99.90
5631;DHT22;2837;50.990;7.124;2022-08-19T07:28:36;21.30;99.90
5631;DHT22;2837;50.990;7.124;2022-08-19T07:31:10;21.30;99.90
5631;DHT22;2837;50.990;7.124;2022-08-19T07:33:37;21.30;99.90
5631;DHT22;2837;50.990;7.124;2022-08-19T07:36:08;21.30;99.90
5631;DHT22;2837;50.990;7.124;2022-08-19T07:38:38;21.30;99.90
5631;DHT22;2837;50.990;7.124;2022-08-19T07:41:05;21.40;99.90
5631;DHT22;2837;50.990;7.124;2022-08-19T07:43:31;21.40;99.90
5631;DHT22;2837;50.990;7.124;2022-08-19T07:45:57;21.40;99.90
5631;DHT22;2837;50.990;7.124;2022-08-19T07:48:24;21.50;99.90
5631;DHT22;2837;50.990;7.124;2022-08-19T07:50:52;21.50;99.90
5631;DHT22;2837;50.990;7.124;2022-08-19T07:53:18;21.50;99.90
5631;DHT22;2837;50.990;7.124;2022-08-19T07:55:44;21.50;99.90
5631;DHT22;2837;50.990;7.124;2022-08-19T07:58:12;21.60;99.90
5631;DHT22;2837;50.990;7.124;2022-08-19T08:00:38;21.60;99.90
5631;DHT22;2837;50.990;7.124;2022-08-19T08:03:04;21.60;99.90
5631;DHT22;2837;50.990;7.124;2022-08-19T08:05:29;21.70;99.90
5631;DHT22;2837;50.990;7.124;2022-08-19T08:08:13;21.70;99.90
5631;DHT22;2837;50.990;7.124;2022-08-19T08:10:58;21.70;99.90
5631;DHT22;2837;50.990;7.124;2022-08-19T08:13:25;21.80;99.90
5631;DHT22;2837;50.990;7.124;2022-08-19T08:15:50;21.70;99.90
5631;DHT22;2837;50.990;7.124;2022-08-19T08:18:16;21.80;99.90
5631;DHT22;2837;50.990;7.124;2022-08-19T08:20:41;21.80;99.90
5631;DHT22;2837;50.990;7.124;2022-08-19T08:23:07;21.80;99.90
5631;DHT22;2837;50.990;7.124;2022-08-19T08:25:48;21.80;99.90
5631;DHT22;2837;50.990;7.124;2022-08-19T08:28:14;21.90;99.90
5631;DHT22;2837;50.990;7.124;2022-08-19T08:30:40;21.90;99.90
5631;DHT22;2837;50.990;7.124;2022-08-19T08:33:09;21.90;99.90
5631;DHT22;2837;50.990;7.124;2022-08-19T08:35:35;21.90;99.90
5631;DHT22;2837;50.990;7.124;2022-08-19T08:38:01;22.00;99.90
5631;DHT22;2837;50.990;7.124;2022-08-19T08:43:32;22.00;99.90
5631;DHT22;2837;50.990;7.124;2022-08-19T08:46:05;22.00;99.90
5631;DHT22;2837;50.990;7.124;2022-08-19T08:51:25;22.00;99.90
5631;DHT22;2837;50.990;7.124;2022-08-19T08:53:54;22.00;99.90
5631;DHT22;2837;50.990;7.124;2022-08-19T08:56:20;21.90;99.90
5631;DHT22;2837;50.990;7.124;2022-08-19T08:58:59;22.00;99.90
5631;DHT22;2837;50.990;7.124;2022-08-19T09:01:27;22.00;99.90
5631;DHT22;2837;50.990;7.124;2022-08-19T09:03:53;22.00;99.90
5631;DHT22;2837;50.990;7.124;2022-08-19T09:09:20;22.00;99.90
5631;DHT22;2837;50.990;7.124;2022-08-19T09:16:58;22.00;99.90
5631;DHT22;2837;50.990;7.124;2022-08-19T09:19:24;22.00;99.90
5631;DHT22;2837;50.990;7.124;2022-08-19T09:21:50;22.00;99.90
5631;DHT22;2837;50.990;7.124;2022-08-19T09:24:15;22.10;99.90
5631;DHT22;2837;50.990;7.124;2022-08-19T09:26:41;22.10;99.90
5631;DHT22;2837;50.990;7.124;2022-08-19T09:29:09;22.10;99.90
5631;DHT22;2837;50.990;7.124;2022-08-19T09:31:35;22.10;99.90
5631;DHT22;2837;50.990;7.124;2022-08-19T09:34:00;22.20;99.90
5631;DHT22;2837;50.990;7.124;2022-08-19T09:36:30;22.20;99.90
5631;DHT22;2837;50.990;7.124;2022-08-19T09:38:58;22.20;99.90
5631;DHT22;2837;50.990;7.124;2022-08-19T09:41:25;22.20;99.90
5631;DHT22;2837;50.990;7.124;2022-08-19T09:43:52;22.20;99.90
5631;DHT22;2837;50.990;7.124;2022-08-19T09:46:22;22.20;99.90
5631;DHT22;2837;50.990;7.124;2022-08-19T09:48:49;22.20;99.90
5631;DHT22;2837;50.990;7.124;2022-08-19T09:51:23;22.20;99.90
5631;DHT22;2837;50.990;7.124;2022-08-19T09:53:50;22.30;99.90
5631;DHT22;2837;50.990;7.124;2022-08-19T09:56:18;22.30;99.90
5631;DHT22;2837;50.990;7.124;2022-08-19T09:58:44;22.30;99.90
5631;DHT22;2837;50.990;7.124;2022-08-19T10:01:19;22.40;99.90
5631;DHT22;2837;50.990;7.124;2022-08-19T10:03:50;22.40;99.90
5631;DHT22;2837;50.990;7.124;2022-08-19T10:06:17;22.40;99.90
5631;DHT22;2837;50.990;7.124;2022-08-19T10:08:42;22.40;99.90
5631;DHT22;2837;50.990;7.124;2022-08-19T10:11:09;22.50;99.90
5631;DHT22;2837;50.990;7.124;2022-08-19T10:13:35;22.50;99.90
5631;DHT22;2837;50.990;7.124;2022-08-19T10:16:06;22.50;99.90
5631;DHT22;2837;50.990;7.124;2022-08-19T10:18:32;22.60;99.90
5631;DHT22;2837;50.990;7.124;2022-08-19T10:21:12;22.60;99.90
5631;DHT22;2837;50.990;7.124;2022-08-19T10:23:40;22.60;99.90
5631;DHT22;2837;50.990;7.124;2022-08-19T10:26:11;22.60;99.90
5631;DHT22;2837;50.990;7.124;2022-08-19T10:28:38;22.60;99.90
5631;DHT22;2837;50.990;7.124;2022-08-19T10:31:06;22.60;99.90
5631;DHT22;2837;50.990;7.124;2022-08-19T10:33:32;22.60;99.90
5631;DHT22;2837;50.990;7.124;2022-08-19T10:36:06;22.60;99.90
5631;DHT22;2837;50.990;7.124;2022-08-19T10:38:32;22.60;99.90
5631;DHT22;2837;50.990;7.124;2022-08-19T10:41:10;22.60;99.90
5631;DHT22;2837;50.990;7.124;2022-08-19T10:43:37;22.60;99.90
5631;DHT22;2837;50.990;7.124;2022-08-19T10:46:05;22.60;99.90
5631;DHT22;2837;50.990;7.124;2022-08-19T10:48:31;22.70;99.90
5631;DHT22;2837;50.990;7.124;2022-08-19T10:50:58;22.70;99.90
5631;DHT22;2837;50.990;7.124;2022-08-19T10:53:42;22.70;99.90
5631;DHT22;2837;50.990;7.124;2022-08-19T10:56:07;22.70;99.90
5631;DHT22;2837;50.990;7.124;2022-08-19T10:58:51;22.80;99.90
5631;DHT22;2837;50.990;7.124;2022-08-19T11:01:18;22.80;99.90
5631;DHT22;2837;50.990;7.124;2022-08-19T11:03:44;22.70;99.90
5631;DHT22;2837;50.990;7.124;2022-08-19T11:06:10;22.70;99.90
5631;DHT22;2837;50.990;7.124;2022-08-19T11:08:37;22.80;99.90
5631;DHT22;2837;50.990;7.124;2022-08-19T11:11:04;22.80;99.90
5631;DHT22;2837;50.990;7.124;2022-08-19T11:13:32;22.80;99.90
5631;DHT22;2837;50.990;7.124;2022-08-19T11:16:08;22.80;99.90
5631;DHT22;2837;50.990;7.124;2022-08-19T11:18:35;22.80;99.90
5631;DHT22;2837;50.990;7.124;2022-08-19T11:21:15;22.80;99.90
5631;DHT22;2837;50.990;7.124;2022-08-19T11:23:46;22.80;99.90
5631;DHT22;2837;50.990;7.124;2022-08-19T11:26:12;22.80;99.90
5631;DHT22;2837;50.990;7.124;2022-08-19T11:28:38;22.80;99.90
5631;DHT22;2837;50.990;7.124;2022-08-19T11:31:08;22.80;99.90
5631;DHT22;2837;50.990;7.124;2022-08-19T11:33:34;22.80;99.90
5631;DHT22;2837;50.990;7.124;2022-08-19T11:36:00;22.80;99.90
5631;DHT22;2837;50.990;7.124;2022-08-19T11:38:27;22.80;99.90
5631;DHT22;2837;50.990;7.124;2022-08-19T11:41:00;22.80;99.90
5631;DHT22;2837;50.990;7.124;2022-08-19T11:43:27;22.80;99.90
5631;DHT22;2837;50.990;7.124;2022-08-19T11:45:56;22.90;99.90
5631;DHT22;2837;50.990;7.124;2022-08-19T11:48:22;22.90;99.90
5631;DHT22;2837;50.990;7.124;2022-08-19T11:50:54;22.90;99.90
5631;DHT22;2837;50.990;7.124;2022-08-19T11:53:22;22.90;99.90
5631;DHT22;2837;50.990;7.124;2022-08-19T11:55:48;22.90;99.90
5631;DHT22;2837;50.990;7.124;2022-08-19T11:58:15;23.00;99.90
5631;DHT22;2837;50.990;7.124;2022-08-19T12:00:43;23.00;99.90
5631;DHT22;2837;50.990;7.124;2022-08-19T12:03:11;23.00;99.90
5631;DHT22;2837;50.990;7.124;2022-08-19T12:05:38;23.00;99.90
5631;DHT22;2837;50.990;7.124;2022-08-19T12:08:05;23.00;99.90
5631;DHT22;2837;50.990;7.124;2022-08-19T12:10:31;23.10;99.90
5631;DHT22;2837;50.990;7.124;2022-08-19T12:12:57;23.10;99.90
5631;DHT22;2837;50.990;7.124;2022-08-19T12:15:23;23.10;99.90
5631;DHT22;2837;50.990;7.124;2022-08-19T12:17:48;23.20;99.90
5631;DHT22;2837;50.990;7.124;2022-08-19T12:20:15;23.20;99.90
5631;DHT22;2837;50.990;7.124;2022-08-19T12:22:42;23.20;99.90
5631;DHT22;2837;50.990;7.124;2022-08-19T12:25:10;23.20;99.90
5631;DHT22;2837;50.990;7.124;2022-08-19T12:27:36;23.10;99.90
5631;DHT22;2837;50.990;7.124;2022-08-19T12:30:03;23.10;99.90
5631;DHT22;2837;50.990;7.124;2022-08-19T12:32:29;23.20;99.90
5631;DHT22;2837;50.990;7.124;2022-08-19T12:34:55;23.20;99.90
5631;DHT22;2837;50.990;7.124;2022-08-19T12:37:21;23.20;99.90
5631;DHT22;2837;50.990;7.124;2022-08-19T12:39:46;23.30;99.90
5631;DHT22;2837;50.990;7.124;2022-08-19T12:42:13;23.30;99.90
5631;DHT22;2837;50.990;7.124;2022-08-19T12:44:42;23.30;99.90
5631;DHT22;2837;50.990;7.124;2022-08-19T12:47:09;23.40;99.90
5631;DHT22;2837;50.990;7.124;2022-08-19T12:49:36;23.40;99.90
5631;DHT22;2837;50.990;7.124;2022-08-19T12:52:04;23.40;99.90
5631;DHT22;2837;50.990;7.124;2022-08-19T12:54:30;23.30;99.90
5631;DHT22;2837;50.990;7.124;2022-08-19T12:56:57;23.30;99.90
5631;DHT22;2837;50.990;7.124;2022-08-19T12:59:23;23.40;99.90
5631;DHT22;2837;50.990;7.124;2022-08-19T13:01:49;23.40;99.90
5631;DHT22;2837;50.990;7.124;2022-08-19T13:04:14;23.40;99.90
5631;DHT22;2837;50.990;7.124;2022-08-19T13:06:42;23.40;99.90
5631;DHT22;2837;50.990;7.124;2022-08-19T13:09:08;23.40;99.90
5631;DHT22;2837;50.990;7.124;2022-08-19T13:11:34;23.40;99.90
5631;DHT22;2837;50.990;7.124;2022-08-19T13:14:00;23.40;99.90
5631;DHT22;2837;50.990;7.124;2022-08-19T13:16:26;23.30;99.90
5631;DHT22;2837;50.990;7.124;2022-08-19T13:18:53;23.30;99.90
5631;DHT22;2837;50.990;7.124;2022-08-19T13:21:20;23.30;99.90
5631;DHT22;2837;50.990;7.124;2022-08-19T13:23:46;23.40;99.90
5631;DHT22;2837;50.990;7.124;2022-08-19T13:26:14;23.40;99.90
5631;DHT22;2837;50.990;7.124;2022-08-19T13:28:41;23.40;99.90
5631;DHT22;2837;50.990;7.124;2022-08-19T13:31:27;23.50;99.90
5631;DHT22;2837;50.990;7.124;2022-08-19T13:34:12;23.50;99.90
5631;DHT22;2837;50.990;7.124;2022-08-19T13:36:38;23.50;99.90
5631;DHT22;2837;50.990;7.124;2022-08-19T13:39:05;23.50;99.90
5631;DHT22;2837;50.990;7.124;2022-08-19T13:41:32;23.60;99.90
5631;DHT22;2837;50.990;7.124;2022-08-19T13:43:59;23.60;99.90
5631;DHT22;2837;50.990;7.124;2022-08-19T13:46:24;23.60;99.90
5631;DHT22;2837;50.990;7.124;2022-08-19T13:48:50;23.50;99.90
5631;DHT22;2837;50.990;7.124;2022-08-19T13:51:17;23.60;99.90
5631;DHT22;2837;50.990;7.124;2022-08-19T13:53:43;23.70;99.90
5631;DHT22;2837;50.990;7.124;2022-08-19T13:56:12;23.70;99.90
5631;DHT22;2837;50.990;7.124;2022-08-19T13:58:38;23.70;99.90
5631;DHT22;2837;50.990;7.124;2022-08-19T14:01:04;23.70;99.90
5631;DHT22;2837;50.990;7.124;2022-08-19T14:03:31;23.60;99.90
5631;DHT22;2837;50.990;7.124;2022-08-19T14:05:56;23.70;99.90
5631;DHT22;2837;50.990;7.124;2022-08-19T14:08:23;23.70;99.90
5631;DHT22;2837;50.990;7.124;2022-08-19T14:10:49;23.70;99.90
5631;DHT22;2837;50.990;7.124;2022-08-19T14:13:18;23.70;99.90
5631;DHT22;2837;50.990;7.124;2022-08-19T14:15:44;23.70;99.90
5631;DHT22;2837;50.990;7.124;2022-08-19T14:18:09;23.70;99.90
5631;DHT22;2837;50.990;7.124;2022-08-19T14:20:35;23.70;99.90
5631;DHT22;2837;50.990;7.124;2022-08-19T14:23:02;23.70;99.90
5631;DHT22;2837;50.990;7.124;2022-08-19T14:25:30;23.80;99.90
5631;DHT22;2837;50.990;7.124;2022-08-19T14:27:56;23.70;99.90
5631;DHT22;2837;50.990;7.124;2022-08-19T14:30:28;23.70;99.90
5631;DHT22;2837;50.990;7.124;2022-08-19T14:32:55;23.70;99.90
5631;DHT22;2837;50.990;7.124;2022-08-19T14:35:22;23.60;99.90
5631;DHT22;2837;50.990;7.124;2022-08-19T14:37:48;23.60;99.90
5631;DHT22;2837;50.990;7.124;2022-08-19T14:40:18;23.60;99.90
5631;DHT22;2837;50.990;7.124;2022-08-19T14:43:00;23.70;99.90
5631;DHT22;2837;50.990;7.124;2022-08-19T14:45:30;23.60;99.90
5631;DHT22;2837;50.990;7.124;2022-08-19T14:47:56;23.60;99.90
5631;DHT22;2837;50.990;7.124;2022-08-19T14:50:22;23.60;99.90
5631;DHT22;2837;50.990;7.124;2022-08-19T14:52:48;23.60;99.90
5631;DHT22;2837;50.990;7.124;2022-08-19T14:55:15;23.60;99.90
5631;DHT22;2837;50.990;7.124;2022-08-19T14:57:41;23.60;99.90
5631;DHT22;2837;50.990;7.124;2022-08-19T15:00:08;23.60;99.90
5631;DHT22;2837;50.990;7.124;2022-08-19T15:02:38;23.50;99.90
5631;DHT22;2837;50.990;7.124;2022-08-19T15:05:04;23.50;99.90
5631;DHT22;2837;50.990;7.124;2022-08-19T15:07:29;23.50;99.90
5631;DHT22;2837;50.990;7.124;2022-08-19T15:09:55;23.50;99.90
5631;DHT22;2837;50.990;7.124;2022-08-19T15:12:21;23.50;99.90
5631;DHT22;2837;50.990;7.124;2022-08-19T15:14:47;23.50;99.90
5631;DHT22;2837;50.990;7.124;2022-08-19T15:17:15;23.50;99.90
5631;DHT22;2837;50.990;7.124;2022-08-19T15:19:41;23.50;99.90
5631;DHT22;2837;50.990;7.124;2022-08-19T15:22:07;23.50;99.90
5631;DHT22;2837;50.990;7.124;2022-08-19T15:24:33;23.50;99.90
5631;DHT22;2837;50.990;7.124;2022-08-19T15:27:01;23.50;99.90
5631;DHT22;2837;50.990;7.124;2022-08-19T15:29:26;23.50;99.90
5631;DHT22;2837;50.990;7.124;2022-08-19T15:31:53;23.50;99.90
5631;DHT22;2837;50.990;7.124;2022-08-19T15:34:22;23.40;99.90
5631;DHT22;2837;50.990;7.124;2022-08-19T15:36:48;23.40;99.90
5631;DHT22;2837;50.990;7.124;2022-08-19T15:39:13;23.50;99.90
5631;DHT22;2837;50.990;7.124;2022-08-19T15:41:41;23.50;99.90
5631;DHT22;2837;50.990;7.124;2022-08-19T15:44:14;23.50;99.90
5631;DHT22;2837;50.990;7.124;2022-08-19T15:46:41;23.50;99.90
5631;DHT22;2837;50.990;7.124;2022-08-19T15:49:09;23.50;99.90
5631;DHT22;2837;50.990;7.124;2022-08-19T15:51:36;23.50;99.90
5631;DHT22;2837;50.990;7.124;2022-08-19T15:54:04;23.50;99.90
5631;DHT22;2837;50.990;7.124;2022-08-19T15:56:30;23.60;99.90
5631;DHT22;2837;50.990;7.124;2022-08-19T15:59:16;23.60;99.90
5631;DHT22;2837;50.990;7.124;2022-08-19T16:02:00;23.60;99.90
5631;DHT22;2837;50.990;7.124;2022-08-19T16:04:44;23.70;99.90
5631;DHT22;2837;50.990;7.124;2022-08-19T16:07:28;23.70;99.90
5631;DHT22;2837;50.990;7.124;2022-08-19T16:09:54;23.70;99.90
5631;DHT22;2837;50.990;7.124;2022-08-19T16:12:20;23.70;99.90
5631;DHT22;2837;50.990;7.124;2022-08-19T16:14:45;23.70;99.90
5631;DHT22;2837;50.990;7.124;2022-08-19T16:17:12;23.80;99.90
5631;DHT22;2837;50.990;7.124;2022-08-19T16:19:38;23.80;99.90
5631;DHT22;2837;50.990;7.124;2022-08-19T16:22:04;23.80;99.90
5631;DHT22;2837;50.990;7.124;2022-08-19T16:24:30;23.80;99.90
5631;DHT22;2837;50.990;7.124;2022-08-19T16:26:58;23.70;99.90
5631;DHT22;2837;50.990;7.124;2022-08-19T16:29:26;23.70;99.90
5631;DHT22;2837;50.990;7.124;2022-08-19T16:31:52;23.80;99.90
5631;DHT22;2837;50.990;7.124;2022-08-19T16:34:20;23.80;99.90
5631;DHT22;2837;50.990;7.124;2022-08-19T16:36:45;23.80;99.90
5631;DHT22;2837;50.990;7.124;2022-08-19T16:39:13;23.80;99.90
5631;DHT22;2837;50.990;7.124;2022-08-19T16:41:40;23.80;99.90
5631;DHT22;2837;50.990;7.124;2022-08-19T16:44:08;23.80;99.90
5631;DHT22;2837;50.990;7.124;2022-08-19T16:46:34;23.80;99.90
5631;DHT22;2837;50.990;7.124;2022-08-19T16:49:02;23.70;99.90
5631;DHT22;2837;50.990;7.124;2022-08-19T16:51:28;23.70;99.90
5631;DHT22;2837;50.990;7.124;2022-08-19T16:53:54;23.80;99.90
5631;DHT22;2837;50.990;7.124;2022-08-19T16:56:20;23.80;99.90
5631;DHT22;2837;50.990;7.124;2022-08-19T16:58:47;23.80;99.90
5631;DHT22;2837;50.990;7.124;2022-08-19T17:01:14;23.80;99.90
5631;DHT22;2837;50.990;7.124;2022-08-19T17:03:40;23.80;99.90
5631;DHT22;2837;50.990;7.124;2022-08-19T17:06:15;23.80;99.90
5631;DHT22;2837;50.990;7.124;2022-08-19T17:08:41;23.80;99.90
5631;DHT22;2837;50.990;7.124;2022-08-19T17:11:07;23.70;99.90
5631;DHT22;2837;50.990;7.124;2022-08-19T17:13:33;23.70;99.90
5631;DHT22;2837;50.990;7.124;2022-08-19T17:15:59;23.70;99.90
5631;DHT22;2837;50.990;7.124;2022-08-19T17:18:26;23.70;99.90
5631;DHT22;2837;50.990;7.124;2022-08-19T17:20:52;23.70;99.90
5631;DHT22;2837;50.990;7.124;2022-08-19T17:23:21;23.60;99.90
5631;DHT22;2837;50.990;7.124;2022-08-19T17:25:48;23.60;99.90
5631;DHT22;2837;50.990;7.124;2022-08-19T17:28:25;23.60;99.90
5631;DHT22;2837;50.990;7.124;2022-08-19T17:30:51;23.60;99.90
5631;DHT22;2837;50.990;7.124;2022-08-19T17:33:17;23.60;99.90
5631;DHT22;2837;50.990;7.124;2022-08-19T17:35:43;23.50;99.90
5631;DHT22;2837;50.990;7.124;2022-08-19T17:38:20;23.50;99.90
5631;DHT22;2837;50.990;7.124;2022-08-19T17:40:47;23.50;99.90
5631;DHT22;2837;50.990;7.124;2022-08-19T17:43:14;23.50;99.90
5631;DHT22;2837;50.990;7.124;2022-08-19T17:45:40;23.50;99.90
5631;DHT22;2837;50.990;7.124;2022-08-19T17:48:07;23.50;99.90
5631;DHT22;2837;50.990;7.124;2022-08-19T17:50:33;23.50;99.90
5631;DHT22;2837;50.990;7.124;2022-08-19T17:53:00;23.40;99.90
5631;DHT22;2837;50.990;7.124;2022-08-19T17:55:27;23.40;99.90
5631;DHT22;2837;50.990;7.124;2022-08-19T17:57:53;23.40;99.90
5631;DHT22;2837;50.990;7.124;2022-08-19T18:00:19;23.40;99.90
5631;DHT22;2837;50.990;7.124;2022-08-19T18:02:54;23.40;99.90
5631;DHT22;2837;50.990;7.124;2022-08-19T18:05:27;23.40;99.90
5631;DHT22;2837;50.990;7.124;2022-08-19T18:07:55;23.40;99.90
5631;DHT22;2837;50.990;7.124;2022-08-19T18:10:22;23.40;99.90
5631;DHT22;2837;50.990;7.124;2022-08-19T18:12:49;23.40;99.90
5631;DHT22;2837;50.990;7.124;2022-08-19T18:15:15;23.40;99.90
5631;DHT22;2837;50.990;7.124;2022-08-19T18:17:41;23.30;99.90
5631;DHT22;2837;50.990;7.124;2022-08-19T18:20:09;23.30;99.90
5631;DHT22;2837;50.990;7.124;2022-08-19T18:22:38;23.30;99.90
5631;DHT22;2837;50.990;7.124;2022-08-19T18:25:25;23.30;99.90
5631;DHT22;2837;50.990;7.124;2022-08-19T18:27:52;23.30;99.90
5631;DHT22;2837;50.990;7.124;2022-08-19T18:30:19;23.20;99.90
5631;DHT22;2837;50.990;7.124;2022-08-19T18:32:47;23.20;99.90
5631;DHT22;2837;50.990;7.124;2022-08-19T18:35:21;23.20;99.90
5631;DHT22;2837;50.990;7.124;2022-08-19T18:37:47;23.20;99.90
5631;DHT22;2837;50.990;7.124;2022-08-19T18:40:16;23.10;99.90
5631;DHT22;2837;50.990;7.124;2022-08-19T18:43:02;23.10;99.90
5631;DHT22;2837;50.990;7.124;2022-08-19T18:45:40;23.10;99.90
5631;DHT22;2837;50.990;7.124;2022-08-19T18:48:26;23.10;99.90
5631;DHT22;2837;50.990;7.124;2022-08-19T18:51:11;23.10;99.90
5631;DHT22;2837;50.990;7.124;2022-08-19T18:53:38;23.10;99.90
5631;DHT22;2837;50.990;7.124;2022-08-19T18:56:06;23.00;99.90
5631;DHT22;2837;50.990;7.124;2022-08-19T18:58:32;23.00;99.90
5631;DHT22;2837;50.990;7.124;2022-08-19T19:01:02;23.00;99.90
5631;DHT22;2837;50.990;7.124;2022-08-19T19:03:31;23.00;99.90
5631;DHT22;2837;50.990;7.124;2022-08-19T19:05:58;23.00;99.90
5631;DHT22;2837;50.990;7.124;2022-08-19T19:08:23;23.00;99.90
5631;DHT22;2837;50.990;7.124;2022-08-19T19:10:49;23.00;99.90
5631;DHT22;2837;50.990;7.124;2022-08-19T19:13:14;23.00;99.90
5631;DHT22;2837;50.990;7.124;2022-08-19T19:15:41;22.90;99.90
5631;DHT22;2837;50.990;7.124;2022-08-19T19:18:08;22.90;99.90
5631;DHT22;2837;50.990;7.124;2022-08-19T19:20:41;22.90;99.90
5631;DHT22;2837;50.990;7.124;2022-08-19T19:23:07;22.90;99.90
5631;DHT22;2837;50.990;7.124;2022-08-19T19:25:32;22.90;99.90
5631;DHT22;2837;50.990;7.124;2022-08-19T19:27:59;22.90;99.90
5631;DHT22;2837;50.990;7.124;2022-08-19T19:30:25;22.90;99.90
5631;DHT22;2837;50.990;7.124;2022-08-19T19:32:50;22.90;99.90
5631;DHT22;2837;50.990;7.124;2022-08-19T19:35:16;22.80;99.90
5631;DHT22;2837;50.990;7.124;2022-08-19T19:37:42;22.80;99.90
5631;DHT22;2837;50.990;7.124;2022-08-19T19:40:09;22.80;99.90
5631;DHT22;2837;50.990;7.124;2022-08-19T19:42:35;22.80;99.90
5631;DHT22;2837;50.990;7.124;2022-08-19T19:45:01;22.80;99.90
5631;DHT22;2837;50.990;7.124;2022-08-19T19:47:27;22.80;99.90
5631;DHT22;2837;50.990;7.124;2022-08-19T19:49:54;22.70;99.90
5631;DHT22;2837;50.990;7.124;2022-08-19T19:52:21;22.70;99.90
5631;DHT22;2837;50.990;7.124;2022-08-19T19:54:47;22.70;99.90
5631;DHT22;2837;50.990;7.124;2022-08-19T19:57:13;22.70;99.90
5631;DHT22;2837;50.990;7.124;2022-08-19T19:59:40;22.70;99.90
5631;DHT22;2837;50.990;7.124;2022-08-19T20:02:06;22.60;99.90
5631;DHT22;2837;50.990;7.124;2022-08-19T20:04:33;22.60;99.90
5631;DHT22;2837;50.990;7.124;2022-08-19T20:06:59;22.60;99.90
5631;DHT22;2837;50.990;7.124;2022-08-19T20:09:24;22.60;99.90
5631;DHT22;2837;50.990;7.124;2022-08-19T20:11:53;22.60;99.90
5631;DHT22;2837;50.990;7.124;2022-08-19T20:14:26;22.60;99.90
5631;DHT22;2837;50.990;7.124;2022-08-19T20:16:54;22.60;99.90
5631;DHT22;2837;50.990;7.124;2022-08-19T20:19:23;22.60;99.90
5631;DHT22;2837;50.990;7.124;2022-08-19T20:21:53;22.60;99.90
5631;DHT22;2837;50.990;7.124;2022-08-19T20:24:27;22.60;99.90
5631;DHT22;2837;50.990;7.124;2022-08-19T20:26:55;22.60;99.90
5631;DHT22;2837;50.990;7.124;2022-08-19T20:29:21;22.60;99.90
5631;DHT22;2837;50.990;7.124;2022-08-19T20:31:47;22.60;99.90
5631;DHT22;2837;50.990;7.124;2022-08-19T20:34:14;22.50;99.90
5631;DHT22;2837;50.990;7.124;2022-08-19T20:36:40;22.60;99.90
5631;DHT22;2837;50.990;7.124;2022-08-19T20:39:06;22.60;99.90
5631;DHT22;2837;50.990;7.124;2022-08-19T20:41:33;22.60;99.90
5631;DHT22;2837;50.990;7.124;2022-08-19T20:43:59;22.60;99.90
5631;DHT22;2837;50.990;7.124;2022-08-19T20:46:27;22.70;99.90
5631;DHT22;2837;50.990;7.124;2022-08-19T20:48:54;22.60;99.90
5631;DHT22;2837;50.990;7.124;2022-08-19T20:51:20;22.60;99.90
5631;DHT22;2837;50.990;7.124;2022-08-19T20:53:46;22.60;99.90
5631;DHT22;2837;50.990;7.124;2022-08-19T20:56:12;22.70;99.90
5631;DHT22;2837;50.990;7.124;2022-08-19T20:58:38;22.60;99.90
